Time;durP1;ratioP1;P1;durP2;ratioP2;P2;SDS_P1;SDS_P2;PMS_P1;PMS_P2;Temp;Humidity;BMP_temperature;BMP_pressure;BME280_temperature;BME280_humidity;BME280_pressure;Samples;Min_cycle;Max_cycle;Signal;HPM_P1;HPM_P2
2023/11/10 00:01:15;;;;;;;13.07;2.15;;;;;;;6.48;100.00;98248.47;5053634;28;20021;-84
2023/11/10 00:03:41;;;;;;;9.95;1.90;;;;;;;6.52;100.00;98257.56;5053562;28;20021;-84
2023/11/10 00:06:07;;;;;;;9.85;1.65;;;;;;;6.51;100.00;98241.38;5034719;28;20021;-84
2023/11/10 00:08:33;;;;;;;17.23;2.65;;;;;;;6.50;100.00;98236.38;5034778;28;20072;-84
2023/11/10 00:10:58;;;;;;;15.63;2.45;;;;;;;6.50;100.00;98238.94;5053292;28;20028;-84
2023/11/10 00:13:24;;;;;;;12.05;2.13;;;;;;;6.41;100.00;98236.13;5053395;28;20378;-84
2023/11/10 00:15:49;;;;;;;16.02;2.15;;;;;;;6.45;100.00;98235.91;5053396;28;20483;-84
2023/11/10 00:18:15;;;;;;;13.95;1.73;;;;;;;6.49;100.00;98233.00;5053210;28;20028;-84
2023/11/10 00:20:41;;;;;;;10.25;2.05;;;;;;;6.41;100.00;98246.38;5051359;28;20030;-84
2023/11/10 00:23:10;;;;;;;13.10;2.30;;;;;;;6.47;100.00;98239.97;5053261;28;20029;-84
2023/11/10 00:25:36;;;;;;;13.65;2.78;;;;;;;6.59;100.00;98243.34;5052882;28;20049;-83
2023/11/10 00:28:04;;;;;;;12.32;1.77;;;;;;;6.63;100.00;98234.47;5052710;28;20130;-84
2023/11/10 00:30:29;;;;;;;11.30;1.95;;;;;;;6.50;100.00;98223.56;5052825;28;20016;-84
2023/11/10 00:32:55;;;;;;;14.15;2.97;;;;;;;6.51;100.00;98225.16;5036560;28;20836;-84
2023/11/10 00:35:20;;;;;;;18.65;2.50;;;;;;;6.46;100.00;98227.28;5051668;28;20028;-84
2023/11/10 00:37:48;;;;;;;13.73;2.65;;;;;;;6.52;100.00;98226.81;5052644;28;20032;-84
2023/11/10 00:40:14;;;;;;;12.48;2.03;;;;;;;6.48;100.00;98218.53;5052847;28;20029;-84
2023/11/10 00:42:39;;;;;;;13.35;2.15;;;;;;;6.48;100.00;98213.41;5052439;28;20094;-84
2023/11/10 00:45:05;;;;;;;9.68;1.73;;;;;;;6.50;100.00;98205.59;5034791;28;20025;-84
2023/11/10 00:47:30;;;;;;;16.83;2.70;;;;;;;6.46;100.00;98201.66;5052780;28;20087;-84
2023/11/10 00:49:56;;;;;;;16.92;2.53;;;;;;;6.42;100.00;98207.00;5050878;28;20376;-83
2023/11/10 00:52:21;;;;;;;14.05;2.30;;;;;;;6.61;100.00;98203.88;5048777;28;20040;-84
2023/11/10 00:54:47;;;;;;;14.20;3.00;;;;;;;6.45;100.00;98200.03;5032576;28;20032;-84
2023/11/10 00:57:13;;;;;;;13.75;2.13;;;;;;;6.46;100.00;98191.41;5034945;28;20376;-84
2023/11/10 00:59:39;;;;;;;14.27;2.15;;;;;;;6.33;100.00;98197.44;5052279;28;20495;-84
2023/11/10 01:02:04;;;;;;;14.30;2.35;;;;;;;6.27;100.00;98190.25;5052195;28;20043;-84
2023/11/10 01:04:29;;;;;;;9.50;2.17;;;;;;;6.24;100.00;98199.91;5052214;28;20037;-84
2023/11/10 01:06:55;;;;;;;17.23;2.47;;;;;;;6.27;100.00;98197.94;5051618;28;20056;-83
2023/11/10 01:09:20;;;;;;;10.82;1.92;;;;;;;6.26;100.00;98206.53;5051548;28;20029;-84
2023/11/10 01:11:45;;;;;;;21.42;2.30;;;;;;;6.26;100.00;98214.22;5051887;28;20124;-84
2023/11/10 01:14:11;;;;;;;12.95;2.30;;;;;;;6.29;100.00;98201.19;5051631;28;20108;-84
2023/11/10 01:16:36;;;;;;;13.02;2.95;;;;;;;6.23;100.00;98211.91;5052003;28;20024;-84
2023/11/10 01:19:02;;;;;;;15.88;2.97;;;;;;;6.22;100.00;98210.28;5052155;28;20028;-84
2023/11/10 01:21:27;;;;;;;12.82;2.22;;;;;;;6.24;100.00;98208.38;5050340;28;20025;-84
2023/11/10 01:23:53;;;;;;;9.90;1.77;;;;;;;6.21;100.00;98206.06;5051867;28;20025;-84
2023/11/10 01:26:19;;;;;;;12.73;3.08;;;;;;;6.19;100.00;98205.34;5034247;28;20124;-84
2023/11/10 01:28:44;;;;;;;14.55;2.90;;;;;;;6.22;100.00;98194.91;5051769;28;20017;-83
2023/11/10 01:31:09;;;;;;;8.88;1.38;;;;;;;6.24;100.00;98193.03;5051983;28;20032;-84
2023/11/10 01:33:35;;;;;;;16.58;1.65;;;;;;;6.18;100.00;98193.50;5051957;28;20386;-84
2023/11/10 01:36:01;;;;;;;8.65;1.60;;;;;;;6.23;100.00;98206.78;5050241;28;20368;-84
2023/11/10 01:38:27;;;;;;;8.75;1.80;;;;;;;6.24;100.00;98205.03;5051905;28;20021;-84
2023/11/10 01:40:54;;;;;;;16.00;2.70;;;;;;;6.22;100.00;98210.28;5051882;28;20028;-84
2023/11/10 01:43:20;;;;;;;18.08;1.75;;;;;;;6.30;100.00;98207.94;5051860;28;20074;-84
2023/11/10 01:45:46;;;;;;;11.07;1.38;;;;;;;6.27;100.00;98202.22;5051812;28;20032;-83
2023/11/10 01:48:13;;;;;;;11.23;2.05;;;;;;;6.37;100.00;98198.88;5051584;28;20609;-84
2023/11/10 01:50:41;;;;;;;8.50;1.38;;;;;;;6.44;100.00;98204.34;5049919;28;20033;-84
2023/11/10 01:53:08;;;;;;;8.77;1.20;;;;;;;6.40;100.00;98203.75;5051526;28;20475;-84
2023/11/10 01:55:35;;;;;;;8.57;2.13;;;;;;;6.40;100.00;98203.75;5051660;28;20061;-84
2023/11/10 01:58:01;;;;;;;10.05;1.20;;;;;;;6.41;100.00;98205.41;5051647;28;20033;-84
2023/11/10 02:00:30;;;;;;;12.25;1.38;;;;;;;6.41;100.00;98205.41;5051402;28;20556;-84
2023/11/10 02:03:02;;;;;;;10.13;1.20;;;;;;;6.47;100.00;98209.22;5051711;28;20036;-84
2023/11/10 02:05:28;;;;;;;10.02;1.70;;;;;;;6.55;100.00;98208.63;5032533;28;20056;-84
2023/11/10 02:07:53;;;;;;;10.18;1.23;;;;;;;6.54;100.00;98218.06;5051305;28;20056;-84
2023/11/10 02:10:19;;;;;;;7.70;1.67;;;;;;;6.54;100.00;98196.75;5051487;28;20021;-84
2023/11/10 02:12:52;;;;;;;10.95;1.90;;;;;;;6.53;100.00;98202.81;5033330;28;20029;-84
2023/11/10 02:15:17;;;;;;;6.90;1.15;;;;;;;6.48;100.00;98187.78;5051465;28;20036;-84
2023/11/10 02:17:42;;;;;;;6.82;1.08;;;;;;;6.48;100.00;98195.47;5051460;28;20025;-84
2023/11/10 02:20:09;;;;;;;9.98;1.55;;;;;;;6.48;100.00;98210.03;5032748;28;20056;-84
2023/11/10 02:22:34;;;;;;;9.32;1.38;;;;;;;6.53;100.00;98207.94;5053358;28;20033;-84
2023/11/10 02:25:03;;;;;;;5.88;1.25;;;;;;;6.63;100.00;98204.56;5037214;28;20048;-84
2023/11/10 02:27:28;;;;;;;9.43;1.00;;;;;;;6.59;100.00;98217.72;5055100;28;20036;-84
2023/11/10 02:29:54;;;;;;;5.63;0.90;;;;;;;6.60;100.00;98219.34;5037506;28;20017;-84
2023/11/10 02:32:19;;;;;;;6.30;0.90;;;;;;;6.61;100.00;98205.63;5055820;28;20024;-84
2023/11/10 02:34:45;;;;;;;2.63;0.45;;;;;;;6.60;100.00;98215.03;5036434;28;20024;-84
2023/11/10 02:37:13;;;;;;;6.22;0.63;;;;;;;6.68;100.00;98214.44;5054997;28;20037;-84
2023/11/10 02:39:39;;;;;;;2.22;0.60;;;;;;;6.69;100.00;98197.34;5055436;28;20029;-84
2023/11/10 02:42:04;;;;;;;5.03;1.00;;;;;;;6.64;100.00;98185.69;5055217;28;20074;-84
2023/11/10 02:44:30;;;;;;;7.05;1.80;;;;;;;6.64;100.00;98190.00;5054726;28;20025;-83
2023/11/10 02:46:55;;;;;;;3.63;0.50;;;;;;;6.63;100.00;98194.31;5055003;28;20025;-83
2023/11/10 02:49:21;;;;;;;4.70;0.57;;;;;;;6.60;100.00;98193.72;5053086;28;20356;-84
2023/11/10 02:51:47;;;;;;;10.85;1.38;;;;;;;6.64;100.00;98200.25;5055030;28;20116;-83
2023/11/10 02:54:12;;;;;;;3.55;0.65;;;;;;;6.63;100.00;98178.94;5054591;28;20032;-83
2023/11/10 02:56:38;;;;;;;11.05;1.17;;;;;;;6.64;100.00;98175.41;5055001;28;20070;-83
2023/11/10 02:59:04;;;;;;;4.95;0.98;;;;;;;6.64;100.00;98179.75;5053369;28;20083;-83
2023/11/10 03:01:29;;;;;;;6.50;0.60;;;;;;;6.62;100.00;98179.03;5053974;28;20025;-83
2023/11/10 03:03:55;;;;;;;6.32;0.68;;;;;;;6.65;100.00;98176.22;5053621;28;20037;-83
2023/11/10 03:06:20;;;;;;;3.83;0.63;;;;;;;6.68;100.00;98191.38;5054593;28;20486;-83
2023/11/10 03:08:45;;;;;;;6.10;1.25;;;;;;;6.75;100.00;98210.47;5054619;28;20486;-83
2023/11/10 03:11:11;;;;;;;6.57;0.70;;;;;;;6.77;100.00;98216.28;5054272;28;20086;-83
2023/11/10 03:13:41;;;;;;;7.03;0.88;;;;;;;6.87;100.00;98218.97;5054351;28;20379;-83
2023/11/10 03:16:07;;;;;;;10.88;3.70;;;;;;;6.75;100.00;98213.03;5036582;28;20021;-83
2023/11/10 03:18:32;;;;;;;6.53;1.00;;;;;;;6.70;100.00;98210.00;5053742;28;20479;-83
2023/11/10 03:21:00;;;;;;;4.93;0.85;;;;;;;6.55;100.00;98194.06;5054229;28;20029;-83
2023/11/10 03:23:26;;;;;;;3.75;0.50;;;;;;;6.63;100.00;98184.06;5053726;28;20086;-84
2023/11/10 03:25:51;;;;;;;1.65;0.45;;;;;;;6.62;100.00;98179.84;5054377;28;20029;-84
2023/11/10 03:28:16;;;;;;;5.07;0.60;;;;;;;6.63;100.00;98167.84;5054310;28;20033;-83
2023/11/10 03:30:42;;;;;;;4.40;0.70;;;;;;;6.68;100.00;98170.84;5036514;28;20036;-84
2023/11/10 03:33:07;;;;;;;4.93;2.05;;;;;;;6.66;100.00;98167.63;5053122;28;20161;-84
2023/11/10 03:35:32;;;;;;;5.47;0.55;;;;;;;6.63;100.00;98167.84;5052845;28;20039;-84
2023/11/10 03:37:58;;;;;;;2.30;0.50;;;;;;;6.66;100.00;98165.06;5036234;28;20025;-83
2023/11/10 03:40:23;;;;;;;8.15;0.65;;;;;;;6.67;100.00;98161.56;5054034;28;20487;-84
2023/11/10 03:42:48;;;;;;;3.92;0.40;;;;;;;6.66;100.00;98147.13;5054020;28;20116;-84
2023/11/10 03:45:14;;;;;;;3.00;0.47;;;;;;;6.73;100.00;98143.16;5053701;28;20123;-84
2023/11/10 03:47:40;;;;;;;1.35;0.30;;;;;;;6.77;100.00;98147.06;5053523;28;20056;-84
2023/11/10 03:50:06;;;;;;;1.85;0.30;;;;;;;6.74;100.00;98155.00;5053169;28;20025;-84
2023/11/10 03:52:32;;;;;;;3.95;0.32;;;;;;;6.72;100.00;98145.81;5053146;28;20087;-84
2023/11/10 03:54:58;;;;;;;2.03;0.30;;;;;;;6.73;100.00;98150.00;5049291;28;20497;-84
2023/11/10 03:57:23;;;;;;;1.10;0.40;;;;;;;6.72;100.00;98146.63;5052024;28;20036;-84
2023/11/10 03:59:48;;;;;;;2.75;0.30;;;;;;;6.78;100.00;98125.66;5035227;28;20033;-84
2023/11/10 04:02:14;;;;;;;5.72;0.60;;;;;;;6.70;100.00;98122.84;5053653;28;20051;-84
2023/11/10 04:04:40;;;;;;;5.30;0.40;;;;;;;6.71;100.00;98128.81;5035789;28;20387;-84
2023/11/10 04:07:05;;;;;;;1.27;0.40;;;;;;;6.70;100.00;98122.84;5053483;28;20288;-83
2023/11/10 04:09:34;;;;;;;4.93;0.47;;;;;;;6.73;100.00;98116.66;5035667;28;20307;-84
2023/11/10 04:12:01;;;;;;;2.92;0.43;;;;;;;6.75;100.00;98104.56;5051502;28;20025;-84
2023/11/10 04:14:26;;;;;;;5.18;0.70;;;;;;;6.73;100.00;98103.84;5052596;28;20025;-84
2023/11/10 04:16:52;;;;;;;6.15;1.02;;;;;;;6.68;100.00;98111.91;5053189;28;20383;-84
2023/11/10 04:19:17;;;;;;;5.30;0.65;;;;;;;6.72;100.00;98108.16;5052836;28;20387;-83
2023/11/10 04:21:43;;;;;;;6.32;0.85;;;;;;;6.76;100.00;98101.88;5053237;28;20439;-84
2023/11/10 04:24:09;;;;;;;3.78;0.57;;;;;;;6.79;100.00;98104.19;5052996;28;20049;-84
2023/11/10 04:26:34;;;;;;;3.33;1.15;;;;;;;6.79;100.00;98117.00;5053271;28;20514;-84
2023/11/10 04:29:00;;;;;;;4.72;1.00;;;;;;;6.79;100.00;98111.88;5052899;28;20116;-84
2023/11/10 04:31:25;;;;;;;15.00;1.95;;;;;;;6.78;100.00;98115.38;5053007;28;20486;-83
2023/11/10 04:33:50;;;;;;;10.45;1.45;;;;;;;6.97;100.00;98112.16;5052441;28;20025;-84
2023/11/10 04:36:16;;;;;;;8.18;0.95;;;;;;;6.92;100.00;98121.16;5052592;28;20021;-84
2023/11/10 04:38:44;;;;;;;6.90;1.10;;;;;;;6.94;100.00;98117.53;5052964;28;20271;-84
2023/11/10 04:41:10;;;;;;;10.07;1.77;;;;;;;7.00;100.00;98114.50;5034854;28;20140;-83
2023/11/10 04:43:36;;;;;;;11.50;2.03;;;;;;;7.03;100.00;98110.88;5050317;28;20024;-84
2023/11/10 04:46:05;;;;;;;5.43;1.00;;;;;;;7.16;100.00;98108.13;5052764;28;20029;-84
2023/11/10 04:48:30;;;;;;;11.70;1.20;;;;;;;7.03;100.00;98095.50;5052782;28;20079;-84
2023/11/10 04:50:56;;;;;;;27.08;1.80;;;;;;;6.91;100.00;98088.78;5034993;28;20429;-84
2023/11/10 04:53:21;;;;;;;5.72;1.20;;;;;;;6.88;100.00;98060.78;5052301;28;20032;-84
2023/11/10 04:55:46;;;;;;;12.48;1.60;;;;;;;6.94;100.00;98066.25;5034436;28;20033;-84
2023/11/10 04:58:12;;;;;;;6.80;1.13;;;;;;;6.97;100.00;98057.50;5051205;28;20033;-84
2023/11/10 05:00:37;;;;;;;7.22;0.98;;;;;;;6.93;100.00;98071.53;5050797;28;20029;-84
2023/11/10 05:03:03;;;;;;;5.68;1.40;;;;;;;6.91;100.00;98073.38;5052326;28;20029;-84
2023/11/10 05:05:29;;;;;;;9.05;1.15;;;;;;;6.81;100.00;98058.75;5052331;28;20063;-84
2023/11/10 05:07:55;;;;;;;13.52;1.15;;;;;;;6.79;100.00;98055.47;5052141;28;20108;-84
2023/11/10 05:10:20;;;;;;;21.85;2.55;;;;;;;6.90;100.00;98067.47;5052112;28;20021;-84
2023/11/10 05:12:45;;;;;;;18.92;1.95;;;;;;;6.93;100.00;98051.00;5052274;28;20040;-84
2023/11/10 05:15:12;;;;;;;18.05;2.10;;;;;;;6.94;100.00;98052.63;5051518;28;20029;-84
2023/11/10 05:17:39;;;;;;;12.88;1.90;;;;;;;7.03;100.00;98064.72;5052214;28;20020;-84
2023/11/10 05:20:07;;;;;;;18.30;1.75;;;;;;;7.01;100.00;98064.00;5051731;28;20068;-84
2023/11/10 05:22:33;;;;;;;10.50;1.50;;;;;;;6.99;100.00;98055.63;5048627;28;20048;-84
2023/11/10 05:25:00;;;;;;;11.73;1.33;;;;;;;6.99;100.00;98050.50;5051990;28;20387;-84
2023/11/10 05:27:25;;;;;;;14.20;1.55;;;;;;;6.96;100.00;98045.63;5051194;28;20025;-84
2023/11/10 05:29:51;;;;;;;15.25;2.08;;;;;;;6.98;100.00;98043.75;5051880;28;20036;-84
2023/11/10 05:32:17;;;;;;;13.23;1.52;;;;;;;7.09;100.00;98033.41;5051320;28;20040;-84
2023/11/10 05:34:43;;;;;;;10.00;1.58;;;;;;;7.00;100.00;98040.13;5051676;28;20025;-84
2023/11/10 05:37:10;;;;;;;14.23;1.63;;;;;;;6.92;100.00;98033.97;5052072;28;20414;-84
2023/11/10 05:39:36;;;;;;;10.75;1.50;;;;;;;6.93;100.00;98021.03;5051650;28;20448;-84
2023/11/10 05:42:01;;;;;;;13.70;1.67;;;;;;;7.02;100.00;98010.03;5049457;28;20108;-84
2023/11/10 05:44:26;;;;;;;9.85;1.55;;;;;;;6.97;100.00;98001.06;5050989;28;20479;-84
2023/11/10 05:46:52;;;;;;;15.77;1.80;;;;;;;6.96;100.00;98000.28;5051740;28;20028;-84
2023/11/10 05:49:17;;;;;;;6.57;1.10;;;;;;;6.95;100.00;98000.38;5033795;28;20036;-84
2023/11/10 05:51:43;;;;;;;11.82;1.30;;;;;;;6.96;100.00;97987.44;5051880;28;20025;-84
2023/11/10 05:54:08;;;;;;;12.30;1.45;;;;;;;6.94;100.00;97985.94;5051727;28;20032;-84
2023/11/10 05:56:33;;;;;;;17.77;1.33;;;;;;;7.00;100.00;98003.41;5050172;28;20025;-83
2023/11/10 05:59:01;;;;;;;12.48;1.70;;;;;;;6.94;100.00;97999.56;5051623;28;20036;-83
2023/11/10 06:01:28;;;;;;;9.90;1.92;;;;;;;6.84;100.00;97986.69;5033659;28;20470;-84
2023/11/10 06:03:53;;;;;;;30.40;2.03;;;;;;;6.85;100.00;97983.22;5051616;28;20039;-84
2023/11/10 06:06:19;;;;;;;18.40;2.17;;;;;;;6.88;100.00;97976.19;5051424;28;20025;-84
2023/11/10 06:08:44;;;;;;;11.85;1.25;;;;;;;6.88;100.00;97976.19;5051366;28;20479;-83
2023/11/10 06:11:17;;;;;;;13.88;2.15;;;;;;;6.88;100.00;97983.88;5050624;28;20029;-84
2023/11/10 06:13:42;;;;;;;14.25;2.47;;;;;;;6.85;100.00;97962.69;5051153;28;20033;-83
2023/11/10 06:16:08;;;;;;;15.70;1.77;;;;;;;6.91;100.00;97956.25;5051447;28;20017;-83
2023/11/10 06:18:33;;;;;;;11.98;1.85;;;;;;;6.86;100.00;97945.56;5051043;28;20029;-83
2023/11/10 06:20:59;;;;;;;17.40;1.70;;;;;;;6.83;100.00;97949.19;5051141;28;20028;-83
2023/11/10 06:23:24;;;;;;;17.35;2.00;;;;;;;6.83;100.00;97954.31;5050725;28;20103;-84
2023/11/10 06:25:49;;;;;;;14.18;1.60;;;;;;;6.86;100.00;97954.06;5050674;28;20059;-83
2023/11/10 06:28:15;;;;;;;18.15;1.80;;;;;;;6.85;100.00;97947.31;5033368;28;20021;-83
2023/11/10 06:30:40;;;;;;;14.93;1.55;;;;;;;6.87;100.00;97939.47;5051460;28;20025;-84
2023/11/10 06:33:05;;;;;;;15.75;1.95;;;;;;;6.91;100.00;97943.44;5033298;28;20064;-84
2023/11/10 06:35:31;;;;;;;17.33;2.53;;;;;;;6.94;100.00;97922.66;5033533;28;20053;-83
2023/11/10 06:37:56;;;;;;;18.52;2.75;;;;;;;6.90;100.00;97939.25;5033062;28;20068;-83
2023/11/10 06:40:22;;;;;;;17.67;2.15;;;;;;;6.86;100.00;97935.31;5050877;28;20117;-84
2023/11/10 06:42:47;;;;;;;15.13;2.22;;;;;;;6.92;100.00;97923.72;5031252;28;20064;-84
2023/11/10 06:45:12;;;;;;;24.25;2.25;;;;;;;6.90;100.00;97923.88;5051061;28;20024;-83
2023/11/10 06:47:38;;;;;;;14.48;1.90;;;;;;;6.83;100.00;97923.56;5050715;28;20021;-83
2023/11/10 06:50:04;;;;;;;13.60;1.63;;;;;;;6.94;100.00;97917.53;5032877;28;20044;-83
2023/11/10 06:52:29;;;;;;;8.18;2.10;;;;;;;6.94;100.00;97919.28;5049060;28;20025;-83
2023/11/10 06:54:54;;;;;;;13.60;1.60;;;;;;;6.91;100.00;97919.53;5031097;28;20029;-84
2023/11/10 06:57:20;;;;;;;10.35;1.85;;;;;;;6.91;100.00;97924.66;5051488;28;20163;-84
2023/11/10 06:59:45;;;;;;;13.82;1.55;;;;;;;6.92;100.00;97916.03;5050402;28;20033;-84
2023/11/10 07:02:12;;;;;;;11.88;1.92;;;;;;;6.96;100.00;97930.22;5050723;28;20021;-83
2023/11/10 07:04:38;;;;;;;15.70;1.90;;;;;;;6.97;100.00;97924.16;5050937;28;20033;-83
2023/11/10 07:07:04;;;;;;;16.85;2.70;;;;;;;6.95;100.00;97924.28;5051419;28;20035;-84
2023/11/10 07:09:30;;;;;;;23.80;2.92;;;;;;;7.03;100.00;97926.22;5054521;28;20033;-84
2023/11/10 07:11:56;;;;;;;18.58;2.03;;;;;;;7.05;100.00;97926.91;5053827;28;20381;-84
2023/11/10 07:14:21;;;;;;;28.17;2.60;;;;;;;6.98;100.00;97930.91;5054419;28;20029;-84
2023/11/10 07:16:46;;;;;;;21.52;2.78;;;;;;;6.97;100.00;97926.72;5036711;28;20451;-84
2023/11/10 07:19:12;;;;;;;20.38;3.38;;;;;;;7.00;100.00;97923.91;5054432;28;20032;-83
2023/11/10 07:21:38;;;;;;;17.25;2.45;;;;;;;6.99;100.00;97933.34;5054355;28;20087;-83
2023/11/10 07:24:04;;;;;;;24.67;2.88;;;;;;;7.00;100.00;97924.72;5054116;28;20024;-83
2023/11/10 07:26:30;;;;;;;19.25;3.20;;;;;;;7.04;100.00;97930.41;5035835;28;20326;-83
2023/11/10 07:28:59;;;;;;;16.70;2.38;;;;;;;7.04;100.00;97923.50;5053931;28;20494;-82
2023/11/10 07:31:24;;;;;;;13.90;2.60;;;;;;;7.01;100.00;97916.06;5054245;28;20028;-82
2023/11/10 07:33:50;;;;;;;12.02;1.80;;;;;;;7.06;100.00;97920.81;5054018;28;20099;-82
2023/11/10 07:36:15;;;;;;;16.15;3.08;;;;;;;7.12;100.00;97917.75;5054193;28;20416;-82
2023/11/10 07:38:41;;;;;;;17.27;1.90;;;;;;;7.08;100.00;97912.06;5053988;28;20032;-82
2023/11/10 07:41:06;;;;;;;25.10;2.05;;;;;;;7.09;100.00;97918.00;5053971;28;20071;-82
2023/11/10 07:43:31;;;;;;;13.85;2.20;;;;;;;7.13;100.00;97923.69;5051334;28;20383;-82
2023/11/10 07:45:58;;;;;;;17.95;2.25;;;;;;;7.11;100.00;97915.31;5053898;28;20021;-82
2023/11/10 07:48:23;;;;;;;16.05;2.10;;;;;;;7.11;100.00;97916.13;5053919;28;20422;-82
2023/11/10 07:50:49;;;;;;;18.35;2.15;;;;;;;7.12;100.00;97928.03;5053986;28;20028;-82
2023/11/10 07:53:14;;;;;;;17.63;2.13;;;;;;;7.24;100.00;97934.69;5053867;28;20123;-82
2023/11/10 07:55:40;;;;;;;18.45;2.13;;;;;;;7.27;100.00;97942.13;5053665;28;20056;-82
2023/11/10 07:58:05;;;;;;;9.07;1.20;;;;;;;7.25;100.00;97933.75;5052970;28;20450;-82
2023/11/10 08:00:31;;;;;;;8.23;1.15;;;;;;;7.22;100.00;97939.13;5053545;28;20124;-82
2023/11/10 08:02:56;;;;;;;8.50;1.58;;;;;;;7.38;100.00;97946.34;5053624;28;20056;-82
2023/11/10 08:05:22;;;;;;;10.95;1.23;;;;;;;7.40;100.00;97956.50;5033070;28;20054;-82
2023/11/10 08:07:49;;;;;;;6.40;1.15;;;;;;;7.39;100.00;97954.84;5052945;28;20021;-83
2023/11/10 08:10:16;;;;;;;6.35;1.40;;;;;;;7.44;100.00;97963.00;5035677;28;20021;-83
2023/11/10 08:12:42;;;;;;;11.15;1.33;;;;;;;7.43;100.00;97963.91;5053567;28;20033;-83
2023/11/10 08:15:09;;;;;;;16.98;4.00;;;;;;;7.37;100.00;97967.81;5051586;28;20061;-83
2023/11/10 08:17:35;;;;;;;9.90;1.33;;;;;;;7.40;100.00;97972.69;5053018;28;20035;-86
2023/11/10 08:20:01;;;;;;;9.23;1.15;;;;;;;7.41;100.00;97983.75;5053090;28;20033;-82
2023/11/10 08:22:27;;;;;;;8.40;1.92;;;;;;;7.39;100.00;97985.63;5049217;28;20472;-83
2023/11/10 08:24:55;;;;;;;5.85;1.05;;;;;;;7.38;100.00;97997.66;5051970;28;20087;-82
2023/11/10 08:27:22;;;;;;;5.25;0.82;;;;;;;7.35;100.00;98005.63;5053163;28;20021;-82
2023/11/10 08:29:47;;;;;;;11.88;1.13;;;;;;;7.32;100.00;98010.22;5052183;28;20017;-82
2023/11/10 08:32:12;;;;;;;4.85;0.90;;;;;;;7.53;100.00;98018.66;5048780;28;20033;-82
2023/11/10 08:34:38;;;;;;;9.27;1.17;;;;;;;7.60;100.00;98013.84;5072597;28;20020;-82
2023/11/10 08:37:03;;;;;;;4.68;1.00;;;;;;;7.59;100.00;98020.72;5072591;28;20056;-81
2023/11/10 08:39:28;;;;;;;7.25;0.80;;;;;;;7.65;100.00;98035.59;5042997;28;20143;-82
2023/11/10 08:41:54;;;;;;;4.95;0.93;;;;;;;7.58;100.00;98047.31;5034901;28;20467;-82
2023/11/10 08:44:21;;;;;;;7.70;0.93;;;;;;;7.58;100.00;98051.66;5034205;28;20043;-82
2023/11/10 08:46:47;;;;;;;2.72;0.63;;;;;;;7.64;100.00;98062.22;5053652;28;20039;-82
2023/11/10 08:49:13;;;;;;;2.08;0.40;;;;;;;7.61;100.00;98071.97;5052666;28;20036;-83
2023/11/10 08:51:43;;;;;;;4.28;1.83;;;;;;;7.63;100.00;98083.72;5052108;28;20023;-82
2023/11/10 08:54:08;;;;;;;4.43;1.48;;;;;;;7.69;100.00;98096.03;5054551;28;20056;-82
2023/11/10 08:56:35;;;;;;;1.70;0.60;;;;;;;7.70;100.00;98105.34;5034436;28;20048;-82
2023/11/10 08:59:01;;;;;;;2.05;0.90;;;;;;;7.81;100.00;98114.75;5051604;28;20525;-82
2023/11/10 09:01:26;;;;;;;3.33;0.85;;;;;;;7.74;100.00;98123.09;5052436;28;20033;-82
2023/11/10 09:03:52;;;;;;;3.65;0.95;;;;;;;7.69;100.00;98126.03;5052408;28;20024;-81
2023/11/10 09:06:18;;;;;;;3.92;0.60;;;;;;;7.59;100.00;98141.38;5034348;28;20052;-81
2023/11/10 09:08:43;;;;;;;5.63;1.45;;;;;;;7.59;100.00;98145.72;5033734;28;20068;-82
2023/11/10 09:11:09;;;;;;;4.65;0.75;;;;;;;7.61;100.00;98157.47;5052122;28;20028;-82
2023/11/10 09:13:36;;;;;;;3.53;0.82;;;;;;;7.70;100.00;98158.47;5051292;28;20031;-81
2023/11/10 09:16:01;;;;;;;4.78;0.70;;;;;;;7.56;100.00;98169.88;5051956;28;20021;-81
2023/11/10 09:18:27;;;;;;;3.78;0.60;;;;;;;7.70;100.00;98172.09;5052014;28;20024;-81
2023/11/10 09:20:53;;;;;;;5.35;0.50;;;;;;;7.75;100.00;98181.19;5051815;28;20020;-81
2023/11/10 09:23:18;;;;;;;4.88;0.90;;;;;;;7.84;100.00;98195.84;5041458;28;20131;-81
2023/11/10 09:25:44;;;;;;;2.67;0.57;;;;;;;7.95;100.00;98208.66;5051834;28;20029;-81
2023/11/10 09:28:09;;;;;;;0.40;0.40;;;;;;;7.97;100.00;98213.63;5051320;28;20089;-82
2023/11/10 09:30:34;;;;;;;0.52;0.50;;;;;;;8.08;100.00;98214.38;5055180;28;20021;-81
2023/11/10 09:33:00;;;;;;;4.20;0.70;;;;;;;8.07;100.00;98217.91;5061408;28;20025;-82
2023/11/10 09:35:26;;;;;;;3.53;0.70;;;;;;;8.22;100.00;98227.81;5052672;28;20025;-82
2023/11/10 09:37:52;;;;;;;3.58;0.70;;;;;;;8.15;100.00;98236.06;5050710;28;20340;-82
2023/11/10 09:40:19;;;;;;;2.72;0.50;;;;;;;8.36;100.00;98227.50;5051605;28;20033;-82
2023/11/10 09:42:45;;;;;;;3.65;0.80;;;;;;;8.53;100.00;98238.97;5051816;28;20023;-82
2023/11/10 09:45:14;;;;;;;2.28;0.75;;;;;;;8.57;100.00;98250.63;5049896;28;20418;-82
2023/11/10 09:47:42;;;;;;;4.00;0.60;;;;;;;8.54;100.00;98258.59;5050707;28;20394;-81
2023/11/10 09:50:13;;;;;;;1.80;0.52;;;;;;;8.93;100.00;98272.41;5051354;28;20086;-81
2023/11/10 09:52:40;;;;;;;3.72;0.60;;;;;;;8.99;100.00;98292.47;5050837;28;20060;-81
2023/11/10 09:55:07;;;;;;;3.08;0.52;;;;;;;8.94;100.00;98284.31;5051151;28;20505;-82
2023/11/10 09:57:32;;;;;;;5.50;0.93;;;;;;;9.24;100.00;98299.84;5051196;28;20078;-82
2023/11/10 09:59:58;;;;;;;3.22;1.05;;;;;;;9.32;100.00;98298.25;5051210;28;20029;-82
2023/11/10 10:02:23;;;;;;;0.95;0.30;;;;;;;9.36;100.00;98304.78;5051736;28;20167;-82
2023/11/10 10:04:49;;;;;;;3.50;0.50;;;;;;;9.31;100.00;98319.78;5051166;28;20071;-82
2023/11/10 10:07:16;;;;;;;3.33;0.55;;;;;;;9.35;100.00;98328.06;5050568;28;20146;-82
2023/11/10 10:09:43;;;;;;;5.18;0.77;;;;;;;9.60;100.00;98337.03;5051116;28;20037;-82
2023/11/10 10:12:10;;;;;;;2.22;0.50;;;;;;;9.95;100.00;98351.16;5051643;28;20025;-82
2023/11/10 10:14:36;;;;;;;2.20;0.52;;;;;;;10.36;100.00;98355.25;5050486;28;20084;-83
2023/11/10 10:17:03;;;;;;;1.95;0.80;;;;;;;9.53;100.00;98372.00;5051551;28;20472;-83
2023/11/10 10:19:29;;;;;;;1.38;0.60;;;;;;;10.44;100.00;98376.00;5050982;28;20032;-83
2023/11/10 10:21:55;;;;;;;2.83;0.80;;;;;;;10.26;100.00;98386.16;5051058;28;20479;-83
2023/11/10 10:24:21;;;;;;;2.10;0.52;;;;;;;9.95;100.00;98398.38;5050654;28;20025;-83
2023/11/10 10:26:51;;;;;;;2.13;1.27;;;;;;;9.83;100.00;98407.19;5051064;28;20075;-83
2023/11/10 10:29:18;;;;;;;2.47;0.63;;;;;;;9.57;100.00;98409.44;5050683;28;20033;-84
2023/11/10 10:31:46;;;;;;;2.45;0.80;;;;;;;9.54;100.00;98425.16;5049734;28;20025;-82
2023/11/10 10:34:13;;;;;;;2.55;0.80;;;;;;;10.11;100.00;98433.13;5051284;28;20033;-82
2023/11/10 10:36:38;;;;;;;2.50;0.30;;;;;;;10.88;100.00;98437.47;5051003;28;20048;-83
2023/11/10 10:39:12;;;;;;;2.28;0.50;;;;;;;11.20;100.00;98441.44;5050783;28;20063;-82
2023/11/10 10:41:40;;;;;;;1.60;0.47;;;;;;;11.31;100.00;98455.00;5048385;28;20037;-83
2023/11/10 10:44:07;;;;;;;2.28;0.40;;;;;;;12.15;100.00;98463.56;5053791;28;20098;-83
2023/11/10 10:46:34;;;;;;;3.25;0.63;;;;;;;12.42;100.00;98465.28;5054520;28;20036;-82
2023/11/10 10:48:59;;;;;;;5.40;0.50;;;;;;;12.64;100.00;98464.00;5055020;28;20052;-83
2023/11/10 10:51:27;;;;;;;2.10;0.60;;;;;;;12.72;100.00;98468.44;5051633;28;20124;-83
2023/11/10 10:53:53;;;;;;;2.78;0.90;;;;;;;12.46;100.00;98465.78;5054904;28;20029;-83
2023/11/10 10:56:20;;;;;;;0.85;0.40;;;;;;;12.21;100.00;98468.13;5054624;28;20043;-83
2023/11/10 10:58:45;;;;;;;2.72;0.50;;;;;;;12.17;100.00;98472.00;5055227;28;20033;-83
2023/11/10 11:01:16;;;;;;;3.30;0.73;;;;;;;12.58;100.00;98491.31;5054240;28;20059;-83
2023/11/10 11:04:17;;;;;;;1.77;0.60;;;;;;;12.28;100.00;98496.81;5034180;28;20029;-83
2023/11/10 11:07:16;;;;;;;3.50;0.32;;;;;;;12.46;100.00;98512.34;5034916;28;20026;-83
2023/11/10 11:10:07;;;;;;;4.88;0.73;;;;;;;12.48;100.00;98520.78;5043037;28;20568;-83
2023/11/10 11:13:03;;;;;;;2.72;0.43;;;;;;;12.25;100.00;98534.16;5052582;28;20037;-84
2023/11/10 11:15:59;;;;;;;1.17;0.50;;;;;;;11.99;100.00;98550.34;5053784;28;20017;-83
2023/11/10 11:18:48;;;;;;;3.92;0.50;;;;;;;12.35;100.00;98559.97;5053800;28;20067;-83
2023/11/10 11:21:15;;;;;;;3.78;0.30;;;;;;;11.98;100.00;98569.41;5053469;28;20028;-83
2023/11/10 11:23:40;;;;;;;4.70;0.82;;;;;;;12.02;100.00;98572.50;5054065;28;20382;-83
2023/11/10 11:26:06;;;;;;;8.55;1.08;;;;;;;11.63;100.00;98572.66;5053964;28;20024;-82